sensor_id;sensor_type;location;lat;lon;timestamp;P1;durP1;ratioP1;P2;durP2;ratioP2
53439;SDS011;39333;47.044;15.080;2022-11-06T00:00:22;131.63;;;125.88;;
53439;SDS011;39333;47.044;15.080;2022-11-06T00:02:49;116.63;;;111.55;;
53439;SDS011;39333;47.044;15.080;2022-11-06T00:05:15;114.70;;;109.85;;
53439;SDS011;39333;47.044;15.080;2022-11-06T00:08:00;116.10;;;111.35;;
53439;SDS011;39333;47.044;15.080;2022-11-06T00:10:28;123.90;;;118.72;;
53439;SDS011;39333;47.044;15.080;2022-11-06T00:12:56;115.82;;;110.88;;
53439;SDS011;39333;47.044;15.080;2022-11-06T00:15:22;116.97;;;111.97;;
53439;SDS011;39333;47.044;15.080;2022-11-06T00:17:49;115.40;;;109.85;;
53439;SDS011;39333;47.044;15.080;2022-11-06T00:20:16;124.20;;;118.90;;
53439;SDS011;39333;47.044;15.080;2022-11-06T00:22:43;117.32;;;112.13;;
53439;SDS011;39333;47.044;15.080;2022-11-06T00:25:09;115.63;;;110.55;;
53439;SDS011;39333;47.044;15.080;2022-11-06T00:27:37;112.38;;;107.63;;
53439;SDS011;39333;47.044;15.080;2022-11-06T00:30:06;117.38;;;111.90;;
53439;SDS011;39333;47.044;15.080;2022-11-06T00:32:34;124.75;;;119.65;;
53439;SDS011;39333;47.044;15.080;2022-11-06T00:35:01;124.95;;;119.65;;
53439;SDS011;39333;47.044;15.080;2022-11-06T00:37:28;130.25;;;124.60;;
53439;SDS011;39333;47.044;15.080;2022-11-06T00:39:54;113.47;;;108.60;;
53439;SDS011;39333;47.044;15.080;2022-11-06T00:42:21;120.35;;;115.05;;
53439;SDS011;39333;47.044;15.080;2022-11-06T00:44:48;121.00;;;115.97;;
53439;SDS011;39333;47.044;15.080;2022-11-06T00:47:14;124.05;;;118.78;;
53439;SDS011;39333;47.044;15.080;2022-11-06T00:49:41;125.22;;;119.28;;
53439;SDS011;39333;47.044;15.080;2022-11-06T00:52:08;113.07;;;107.97;;
53439;SDS011;39333;47.044;15.080;2022-11-06T00:54:34;125.18;;;119.70;;
53439;SDS011;39333;47.044;15.080;2022-11-06T00:57:01;112.05;;;107.35;;
53439;SDS011;39333;47.044;15.080;2022-11-06T00:59:28;112.18;;;107.32;;
53439;SDS011;39333;47.044;15.080;2022-11-06T01:01:54;121.75;;;116.45;;
53439;SDS011;39333;47.044;15.080;2022-11-06T01:04:22;124.15;;;118.95;;
53439;SDS011;39333;47.044;15.080;2022-11-06T01:06:50;112.07;;;107.25;;
53439;SDS011;39333;47.044;15.080;2022-11-06T01:09:20;130.48;;;124.78;;
53439;SDS011;39333;47.044;15.080;2022-11-06T01:11:49;112.57;;;107.85;;
53439;SDS011;39333;47.044;15.080;2022-11-06T01:14:38;125.18;;;119.90;;
53439;SDS011;39333;47.044;15.080;2022-11-06T01:17:06;113.03;;;108.13;;
53439;SDS011;39333;47.044;15.080;2022-11-06T01:19:33;124.90;;;119.90;;
53439;SDS011;39333;47.044;15.080;2022-11-06T01:21:59;113.15;;;108.32;;
53439;SDS011;39333;47.044;15.080;2022-11-06T01:24:27;125.15;;;120.07;;
53439;SDS011;39333;47.044;15.080;2022-11-06T01:26:54;111.65;;;107.03;;
53439;SDS011;39333;47.044;15.080;2022-11-06T01:29:42;103.97;;;99.53;;
53439;SDS011;39333;47.044;15.080;2022-11-06T01:32:09;108.78;;;104.10;;
53439;SDS011;39333;47.044;15.080;2022-11-06T01:34:36;116.07;;;111.25;;
53439;SDS011;39333;47.044;15.080;2022-11-06T01:37:03;122.47;;;117.18;;
53439;SDS011;39333;47.044;15.080;2022-11-06T01:39:30;109.75;;;105.35;;
53439;SDS011;39333;47.044;15.080;2022-11-06T01:41:56;109.25;;;104.85;;
53439;SDS011;39333;47.044;15.080;2022-11-06T01:47:27;108.65;;;104.25;;
53439;SDS011;39333;47.044;15.080;2022-11-06T01:49:56;122.68;;;117.57;;
53439;SDS011;39333;47.044;15.080;2022-11-06T01:52:27;121.65;;;116.50;;
53439;SDS011;39333;47.044;15.080;2022-11-06T01:54:58;107.07;;;102.60;;
53439;SDS011;39333;47.044;15.080;2022-11-06T01:57:38;122.75;;;117.78;;
53439;SDS011;39333;47.044;15.080;2022-11-06T02:00:06;113.00;;;108.22;;
53439;SDS011;39333;47.044;15.080;2022-11-06T02:02:34;117.88;;;113.13;;
53439;SDS011;39333;47.044;15.080;2022-11-06T02:05:02;116.95;;;112.35;;
53439;SDS011;39333;47.044;15.080;2022-11-06T02:07:29;111.93;;;107.07;;
53439;SDS011;39333;47.044;15.080;2022-11-06T02:09:56;106.53;;;102.05;;
53439;SDS011;39333;47.044;15.080;2022-11-06T02:23:41;106.78;;;102.45;;
53439;SDS011;39333;47.044;15.080;2022-11-06T02:29:20;122.30;;;117.30;;
53439;SDS011;39333;47.044;15.080;2022-11-06T02:31:54;116.97;;;112.07;;
53439;SDS011;39333;47.044;15.080;2022-11-06T02:34:25;104.50;;;100.28;;
53439;SDS011;39333;47.044;15.080;2022-11-06T02:36:56;107.43;;;102.63;;
53439;SDS011;39333;47.044;15.080;2022-11-06T02:39:29;118.40;;;113.40;;
53439;SDS011;39333;47.044;15.080;2022-11-06T02:41:59;117.57;;;112.60;;
53439;SDS011;39333;47.044;15.080;2022-11-06T02:44:28;108.10;;;103.60;;
53439;SDS011;39333;47.044;15.080;2022-11-06T02:47:04;116.45;;;111.60;;
53439;SDS011;39333;47.044;15.080;2022-11-06T02:52:34;113.93;;;109.22;;
53439;SDS011;39333;47.044;15.080;2022-11-06T02:58:13;100.65;;;96.72;;
53439;SDS011;39333;47.044;15.080;2022-11-06T03:00:46;114.40;;;109.50;;
53439;SDS011;39333;47.044;15.080;2022-11-06T03:03:20;106.85;;;102.55;;
53439;SDS011;39333;47.044;15.080;2022-11-06T03:08:38;112.13;;;107.53;;
53439;SDS011;39333;47.044;15.080;2022-11-06T03:11:26;113.40;;;108.60;;
53439;SDS011;39333;47.044;15.080;2022-11-06T03:14:02;103.90;;;99.72;;
53439;SDS011;39333;47.044;15.080;2022-11-06T03:19:31;118.32;;;113.18;;
53439;SDS011;39333;47.044;15.080;2022-11-06T03:22:21;118.30;;;113.10;;
53439;SDS011;39333;47.044;15.080;2022-11-06T03:30:10;117.68;;;112.70;;
53439;SDS011;39333;47.044;15.080;2022-11-06T03:32:46;120.30;;;115.47;;
53439;SDS011;39333;47.044;15.080;2022-11-06T03:35:16;103.30;;;99.20;;
53439;SDS011;39333;47.044;15.080;2022-11-06T03:40:44;113.18;;;108.55;;
53439;SDS011;39333;47.044;15.080;2022-11-06T03:43:15;115.28;;;110.40;;
53439;SDS011;39333;47.044;15.080;2022-11-06T03:45:45;113.82;;;109.22;;
53439;SDS011;39333;47.044;15.080;2022-11-06T03:48:18;120.13;;;115.07;;
53439;SDS011;39333;47.044;15.080;2022-11-06T03:50:51;117.10;;;112.13;;
53439;SDS011;39333;47.044;15.080;2022-11-06T03:53:28;116.15;;;111.47;;
53439;SDS011;39333;47.044;15.080;2022-11-06T03:59:03;116.65;;;111.65;;
53439;SDS011;39333;47.044;15.080;2022-11-06T04:01:34;115.20;;;110.43;;
53439;SDS011;39333;47.044;15.080;2022-11-06T04:09:31;110.68;;;105.93;;
53439;SDS011;39333;47.044;15.080;2022-11-06T04:12:20;117.22;;;112.20;;
53439;SDS011;39333;47.044;15.080;2022-11-06T04:15:09;111.18;;;106.28;;
53439;SDS011;39333;47.044;15.080;2022-11-06T04:17:39;118.47;;;113.80;;
53439;SDS011;39333;47.044;15.080;2022-11-06T04:20:08;114.80;;;109.70;;
53439;SDS011;39333;47.044;15.080;2022-11-06T04:23:12;105.35;;;100.75;;
53439;SDS011;39333;47.044;15.080;2022-11-06T04:28:49;112.35;;;107.85;;
53439;SDS011;39333;47.044;15.080;2022-11-06T04:37:04;103.25;;;98.75;;
53439;SDS011;39333;47.044;15.080;2022-11-06T04:39:39;103.97;;;99.68;;
53439;SDS011;39333;47.044;15.080;2022-11-06T04:45:50;108.68;;;104.13;;
53439;SDS011;39333;47.044;15.080;2022-11-06T04:48:11;106.22;;;101.97;;
53439;SDS011;39333;47.044;15.080;2022-11-06T04:50:41;118.32;;;113.38;;
53439;SDS011;39333;47.044;15.080;2022-11-06T04:53:13;103.53;;;99.05;;
53439;SDS011;39333;47.044;15.080;2022-11-06T04:55:53;109.78;;;105.40;;
53439;SDS011;39333;47.044;15.080;2022-11-06T04:58:21;122.97;;;116.30;;
53439;SDS011;39333;47.044;15.080;2022-11-06T05:00:49;107.45;;;102.60;;
53439;SDS011;39333;47.044;15.080;2022-11-06T05:03:16;128.35;;;120.28;;
53439;SDS011;39333;47.044;15.080;2022-11-06T05:05:44;123.07;;;115.78;;
53439;SDS011;39333;47.044;15.080;2022-11-06T05:08:12;111.18;;;105.50;;
53439;SDS011;39333;47.044;15.080;2022-11-06T05:10:41;114.07;;;108.50;;
53439;SDS011;39333;47.044;15.080;2022-11-06T05:13:09;114.55;;;108.93;;
53439;SDS011;39333;47.044;15.080;2022-11-06T05:15:36;112.65;;;107.47;;
53439;SDS011;39333;47.044;15.080;2022-11-06T05:18:04;118.85;;;112.80;;
53439;SDS011;39333;47.044;15.080;2022-11-06T05:20:31;112.65;;;106.97;;
53439;SDS011;39333;47.044;15.080;2022-11-06T05:22:58;117.13;;;111.07;;
53439;SDS011;39333;47.044;15.080;2022-11-06T05:25:46;118.50;;;112.22;;
53439;SDS011;39333;47.044;15.080;2022-11-06T05:28:12;111.28;;;105.78;;
53439;SDS011;39333;47.044;15.080;2022-11-06T05:30:40;114.68;;;109.05;;
53439;SDS011;39333;47.044;15.080;2022-11-06T05:33:06;120.97;;;115.25;;
53439;SDS011;39333;47.044;15.080;2022-11-06T05:35:33;112.93;;;107.75;;
53439;SDS011;39333;47.044;15.080;2022-11-06T05:38:00;117.72;;;112.30;;
53439;SDS011;39333;47.044;15.080;2022-11-06T05:40:27;115.68;;;110.55;;
53439;SDS011;39333;47.044;15.080;2022-11-06T05:42:54;107.43;;;103.05;;
53439;SDS011;39333;47.044;15.080;2022-11-06T05:45:21;117.38;;;112.22;;
53439;SDS011;39333;47.044;15.080;2022-11-06T05:47:48;109.78;;;104.57;;
53439;SDS011;39333;47.044;15.080;2022-11-06T05:50:14;118.18;;;112.70;;
53439;SDS011;39333;47.044;15.080;2022-11-06T05:52:41;118.03;;;112.82;;
53439;SDS011;39333;47.044;15.080;2022-11-06T05:55:08;106.45;;;101.78;;
53439;SDS011;39333;47.044;15.080;2022-11-06T05:57:40;107.57;;;102.63;;
53439;SDS011;39333;47.044;15.080;2022-11-06T06:00:07;106.57;;;101.85;;
53439;SDS011;39333;47.044;15.080;2022-11-06T06:02:38;113.95;;;109.13;;
53439;SDS011;39333;47.044;15.080;2022-11-06T06:05:06;108.10;;;102.93;;
53439;SDS011;39333;47.044;15.080;2022-11-06T06:07:33;116.28;;;111.05;;
53439;SDS011;39333;47.044;15.080;2022-11-06T06:10:00;119.10;;;113.53;;
53439;SDS011;39333;47.044;15.080;2022-11-06T06:12:27;108.43;;;103.43;;
53439;SDS011;39333;47.044;15.080;2022-11-06T06:14:53;109.47;;;104.53;;
53439;SDS011;39333;47.044;15.080;2022-11-06T06:17:20;110.38;;;104.93;;
53439;SDS011;39333;47.044;15.080;2022-11-06T06:19:47;111.90;;;106.82;;
53439;SDS011;39333;47.044;15.080;2022-11-06T06:22:14;107.60;;;102.50;;
53439;SDS011;39333;47.044;15.080;2022-11-06T06:24:40;117.07;;;111.35;;
53439;SDS011;39333;47.044;15.080;2022-11-06T06:27:07;119.53;;;113.82;;
53439;SDS011;39333;47.044;15.080;2022-11-06T06:29:34;122.82;;;116.20;;
53439;SDS011;39333;47.044;15.080;2022-11-06T06:32:01;109.18;;;103.88;;
53439;SDS011;39333;47.044;15.080;2022-11-06T06:34:29;116.18;;;110.60;;
53439;SDS011;39333;47.044;15.080;2022-11-06T06:36:56;113.45;;;106.97;;
53439;SDS011;39333;47.044;15.080;2022-11-06T06:39:22;118.25;;;112.72;;
53439;SDS011;39333;47.044;15.080;2022-11-06T06:41:49;122.50;;;116.18;;
53439;SDS011;39333;47.044;15.080;2022-11-06T06:44:16;112.80;;;107.10;;
53439;SDS011;39333;47.044;15.080;2022-11-06T06:46:42;116.57;;;110.13;;
53439;SDS011;39333;47.044;15.080;2022-11-06T06:49:09;129.60;;;122.07;;
53439;SDS011;39333;47.044;15.080;2022-11-06T06:51:36;119.13;;;111.80;;
53439;SDS011;39333;47.044;15.080;2022-11-06T06:54:02;127.82;;;119.07;;
53439;SDS011;39333;47.044;15.080;2022-11-06T06:56:29;121.13;;;115.03;;
53439;SDS011;39333;47.044;15.080;2022-11-06T06:58:56;115.60;;;109.35;;
53439;SDS011;39333;47.044;15.080;2022-11-06T07:01:22;116.97;;;110.47;;
53439;SDS011;39333;47.044;15.080;2022-11-06T07:03:49;124.63;;;117.82;;
53439;SDS011;39333;47.044;15.080;2022-11-06T07:06:17;124.70;;;116.57;;
53439;SDS011;39333;47.044;15.080;2022-11-06T07:08:44;138.98;;;130.10;;
53439;SDS011;39333;47.044;15.080;2022-11-06T07:11:11;124.90;;;116.72;;
53439;SDS011;39333;47.044;15.080;2022-11-06T07:13:38;126.78;;;118.85;;
53439;SDS011;39333;47.044;15.080;2022-11-06T07:16:06;125.20;;;117.45;;
53439;SDS011;39333;47.044;15.080;2022-11-06T07:18:34;117.28;;;111.78;;
53439;SDS011;39333;47.044;15.080;2022-11-06T07:21:03;125.60;;;119.57;;
53439;SDS011;39333;47.044;15.080;2022-11-06T07:23:31;124.78;;;118.95;;
53439;SDS011;39333;47.044;15.080;2022-11-06T07:25:58;128.38;;;122.18;;
53439;SDS011;39333;47.044;15.080;2022-11-06T07:28:25;132.73;;;124.90;;
53439;SDS011;39333;47.044;15.080;2022-11-06T07:30:52;128.50;;;120.63;;
53439;SDS011;39333;47.044;15.080;2022-11-06T07:33:23;134.15;;;126.65;;
53439;SDS011;39333;47.044;15.080;2022-11-06T07:35:49;119.72;;;113.80;;
53439;SDS011;39333;47.044;15.080;2022-11-06T07:38:16;121.28;;;115.35;;
53439;SDS011;39333;47.044;15.080;2022-11-06T07:40:43;136.23;;;129.65;;
53439;SDS011;39333;47.044;15.080;2022-11-06T07:43:10;119.85;;;114.05;;
53439;SDS011;39333;47.044;15.080;2022-11-06T07:45:37;131.57;;;125.55;;
53439;SDS011;39333;47.044;15.080;2022-11-06T07:48:04;126.45;;;120.80;;
53439;SDS011;39333;47.044;15.080;2022-11-06T07:50:32;130.07;;;124.38;;
53439;SDS011;39333;47.044;15.080;2022-11-06T07:53:00;129.32;;;123.70;;
53439;SDS011;39333;47.044;15.080;2022-11-06T07:55:28;134.27;;;128.48;;
53439;SDS011;39333;47.044;15.080;2022-11-06T07:57:56;123.30;;;117.93;;
53439;SDS011;39333;47.044;15.080;2022-11-06T08:00:24;128.20;;;122.43;;
53439;SDS011;39333;47.044;15.080;2022-11-06T08:02:51;137.98;;;132.00;;
53439;SDS011;39333;47.044;15.080;2022-11-06T08:05:18;127.10;;;121.50;;
53439;SDS011;39333;47.044;15.080;2022-11-06T08:07:45;142.38;;;136.48;;
53439;SDS011;39333;47.044;15.080;2022-11-06T08:10:12;132.48;;;126.70;;
53439;SDS011;39333;47.044;15.080;2022-11-06T08:12:39;137.88;;;131.93;;
53439;SDS011;39333;47.044;15.080;2022-11-06T08:15:06;138.73;;;132.73;;
53439;SDS011;39333;47.044;15.080;2022-11-06T08:17:33;144.10;;;137.63;;
53439;SDS011;39333;47.044;15.080;2022-11-06T08:19:59;129.38;;;124.15;;
53439;SDS011;39333;47.044;15.080;2022-11-06T08:22:26;131.45;;;126.05;;
53439;SDS011;39333;47.044;15.080;2022-11-06T08:24:52;130.32;;;124.85;;
53439;SDS011;39333;47.044;15.080;2022-11-06T08:27:19;133.88;;;128.20;;
53439;SDS011;39333;47.044;15.080;2022-11-06T08:29:46;143.63;;;137.23;;
53439;SDS011;39333;47.044;15.080;2022-11-06T08:32:12;141.25;;;134.63;;
53439;SDS011;39333;47.044;15.080;2022-11-06T08:34:39;137.00;;;131.15;;
53439;SDS011;39333;47.044;15.080;2022-11-06T08:37:08;150.35;;;143.82;;
53439;SDS011;39333;47.044;15.080;2022-11-06T08:39:35;141.25;;;135.43;;
53439;SDS011;39333;47.044;15.080;2022-11-06T08:42:03;143.30;;;137.20;;
53439;SDS011;39333;47.044;15.080;2022-11-06T08:44:30;142.48;;;136.77;;
53439;SDS011;39333;47.044;15.080;2022-11-06T08:46:57;140.27;;;134.55;;
53439;SDS011;39333;47.044;15.080;2022-11-06T08:49:24;141.05;;;135.25;;
53439;SDS011;39333;47.044;15.080;2022-11-06T08:51:50;147.13;;;141.20;;
53439;SDS011;39333;47.044;15.080;2022-11-06T08:54:17;146.02;;;139.88;;
53439;SDS011;39333;47.044;15.080;2022-11-06T08:56:44;144.50;;;138.50;;
53439;SDS011;39333;47.044;15.080;2022-11-06T08:59:11;156.52;;;149.27;;
53439;SDS011;39333;47.044;15.080;2022-11-06T09:01:37;142.63;;;136.82;;
53439;SDS011;39333;47.044;15.080;2022-11-06T09:04:04;141.93;;;136.23;;
53439;SDS011;39333;47.044;15.080;2022-11-06T09:06:31;144.38;;;138.23;;
53439;SDS011;39333;47.044;15.080;2022-11-06T09:08:58;156.57;;;150.18;;
53439;SDS011;39333;47.044;15.080;2022-11-06T09:11:25;150.10;;;143.90;;
53439;SDS011;39333;47.044;15.080;2022-11-06T09:13:51;152.40;;;146.23;;
53439;SDS011;39333;47.044;15.080;2022-11-06T09:16:18;156.85;;;150.50;;
53439;SDS011;39333;47.044;15.080;2022-11-06T09:18:45;149.52;;;143.38;;
53439;SDS011;39333;47.044;15.080;2022-11-06T09:21:11;152.02;;;146.00;;
53439;SDS011;39333;47.044;15.080;2022-11-06T09:23:38;161.18;;;154.43;;
53439;SDS011;39333;47.044;15.080;2022-11-06T09:26:05;151.90;;;145.95;;
53439;SDS011;39333;47.044;15.080;2022-11-06T09:28:32;163.00;;;156.18;;
53439;SDS011;39333;47.044;15.080;2022-11-06T09:30:58;151.05;;;144.43;;
53439;SDS011;39333;47.044;15.080;2022-11-06T09:33:27;154.43;;;148.13;;
53439;SDS011;39333;47.044;15.080;2022-11-06T09:35:53;148.30;;;142.27;;
53439;SDS011;39333;47.044;15.080;2022-11-06T09:38:20;151.32;;;145.35;;
53439;SDS011;39333;47.044;15.080;2022-11-06T09:40:51;149.38;;;143.32;;
53439;SDS011;39333;47.044;15.080;2022-11-06T09:46:30;154.55;;;148.05;;
53439;SDS011;39333;47.044;15.080;2022-11-06T09:51:54;153.57;;;147.73;;
53439;SDS011;39333;47.044;15.080;2022-11-06T09:55:02;154.15;;;148.13;;
53439;SDS011;39333;47.044;15.080;2022-11-06T09:57:44;154.23;;;148.07;;
53439;SDS011;39333;47.044;15.080;2022-11-06T10:00:30;157.05;;;150.85;;
53439;SDS011;39333;47.044;15.080;2022-11-06T10:03:11;161.65;;;155.18;;
53439;SDS011;39333;47.044;15.080;2022-11-06T10:06:11;158.13;;;151.82;;
53439;SDS011;39333;47.044;15.080;2022-11-06T10:08:39;162.18;;;155.77;;
53439;SDS011;39333;47.044;15.080;2022-11-06T10:27:13;153.10;;;147.07;;
53439;SDS011;39333;47.044;15.080;2022-11-06T10:37:59;160.38;;;154.02;;
53439;SDS011;39333;47.044;15.080;2022-11-06T10:40:27;151.68;;;146.07;;
53439;SDS011;39333;47.044;15.080;2022-11-06T10:45:35;158.70;;;152.48;;
53439;SDS011;39333;47.044;15.080;2022-11-06T10:48:19;158.88;;;152.68;;
53439;SDS011;39333;47.044;15.080;2022-11-06T10:50:59;156.23;;;150.23;;
53439;SDS011;39333;47.044;15.080;2022-11-06T10:53:43;155.77;;;149.68;;
53439;SDS011;39333;47.044;15.080;2022-11-06T10:59:51;148.50;;;142.70;;
53439;SDS011;39333;47.044;15.080;2022-11-06T11:02:32;156.13;;;150.15;;
53439;SDS011;39333;47.044;15.080;2022-11-06T11:05:06;157.43;;;151.50;;
53439;SDS011;39333;47.044;15.080;2022-11-06T11:07:37;160.52;;;154.32;;
53439;SDS011;39333;47.044;15.080;2022-11-06T11:13:09;152.57;;;146.68;;
53439;SDS011;39333;47.044;15.080;2022-11-06T11:15:45;152.27;;;146.20;;
53439;SDS011;39333;47.044;15.080;2022-11-06T11:18:23;151.27;;;145.48;;
53439;SDS011;39333;47.044;15.080;2022-11-06T11:21:05;156.77;;;150.38;;
53439;SDS011;39333;47.044;15.080;2022-11-06T11:23:38;163.70;;;157.32;;
53439;SDS011;39333;47.044;15.080;2022-11-06T11:26:14;164.68;;;158.27;;
53439;SDS011;39333;47.044;15.080;2022-11-06T11:28:49;155.00;;;148.88;;
53439;SDS011;39333;47.044;15.080;2022-11-06T11:31:17;154.75;;;148.88;;
53439;SDS011;39333;47.044;15.080;2022-11-06T11:33:52;153.98;;;148.18;;
53439;SDS011;39333;47.044;15.080;2022-11-06T11:36:22;153.38;;;147.30;;
53439;SDS011;39333;47.044;15.080;2022-11-06T11:38:49;158.93;;;152.60;;
53439;SDS011;39333;47.044;15.080;2022-11-06T11:46:28;163.00;;;156.65;;
53439;SDS011;39333;47.044;15.080;2022-11-06T11:48:55;156.52;;;150.45;;
53439;SDS011;39333;47.044;15.080;2022-11-06T11:51:25;163.85;;;157.52;;
53439;SDS011;39333;47.044;15.080;2022-11-06T11:54:25;166.57;;;160.18;;
53439;SDS011;39333;47.044;15.080;2022-11-06T11:56:55;157.38;;;151.25;;
53439;SDS011;39333;47.044;15.080;2022-11-06T11:59:41;156.43;;;150.32;;
53439;SDS011;39333;47.044;15.080;2022-11-06T12:02:19;164.90;;;158.55;;
53439;SDS011;39333;47.044;15.080;2022-11-06T12:04:55;160.43;;;154.38;;
53439;SDS011;39333;47.044;15.080;2022-11-06T12:07:26;167.73;;;161.20;;
53439;SDS011;39333;47.044;15.080;2022-11-06T12:09:56;164.15;;;157.98;;
53439;SDS011;39333;47.044;15.080;2022-11-06T12:15:39;170.48;;;163.90;;
53439;SDS011;39333;47.044;15.080;2022-11-06T12:18:33;171.45;;;164.85;;
53439;SDS011;39333;47.044;15.080;2022-11-06T12:20:49;163.88;;;157.68;;
53439;SDS011;39333;47.044;15.080;2022-11-06T12:23:23;169.85;;;163.45;;
53439;SDS011;39333;47.044;15.080;2022-11-06T12:28:54;162.55;;;156.32;;
53439;SDS011;39333;47.044;15.080;2022-11-06T12:31:38;165.50;;;159.20;;
53439;SDS011;39333;47.044;15.080;2022-11-06T12:34:12;165.98;;;159.75;;
53439;SDS011;39333;47.044;15.080;2022-11-06T12:37:00;168.30;;;161.70;;
53439;SDS011;39333;47.044;15.080;2022-11-06T12:39:35;164.02;;;157.60;;
53439;SDS011;39333;47.044;15.080;2022-11-06T12:42:06;163.30;;;157.15;;
53439;SDS011;39333;47.044;15.080;2022-11-06T12:44:37;164.18;;;157.77;;
53439;SDS011;39333;47.044;15.080;2022-11-06T12:47:13;168.50;;;161.98;;
53439;SDS011;39333;47.044;15.080;2022-11-06T12:50:14;163.07;;;156.95;;
53439;SDS011;39333;47.044;15.080;2022-11-06T12:53:05;164.98;;;158.65;;
53439;SDS011;39333;47.044;15.080;2022-11-06T12:55:48;172.20;;;165.70;;
53439;SDS011;39333;47.044;15.080;2022-11-06T13:04:19;163.52;;;157.13;;
53439;SDS011;39333;47.044;15.080;2022-11-06T13:09:31;161.85;;;155.70;;
53439;SDS011;39333;47.044;15.080;2022-11-06T13:12:06;161.35;;;155.23;;
53439;SDS011;39333;47.044;15.080;2022-11-06T13:17:15;164.15;;;157.85;;
53439;SDS011;39333;47.044;15.080;2022-11-06T13:19:55;164.73;;;158.55;;
53439;SDS011;39333;47.044;15.080;2022-11-06T13:22:29;161.00;;;154.80;;
53439;SDS011;39333;47.044;15.080;2022-11-06T13:25:15;162.40;;;156.25;;
53439;SDS011;39333;47.044;15.080;2022-11-06T13:30:26;165.82;;;159.40;;
53439;SDS011;39333;47.044;15.080;2022-11-06T13:35:47;165.45;;;159.00;;
53439;SDS011;39333;47.044;15.080;2022-11-06T13:38:15;164.90;;;158.70;;
53439;SDS011;39333;47.044;15.080;2022-11-06T13:40:47;167.32;;;161.02;;
53439;SDS011;39333;47.044;15.080;2022-11-06T13:43:20;166.98;;;160.63;;
53439;SDS011;39333;47.044;15.080;2022-11-06T13:59:20;174.57;;;167.68;;
53439;SDS011;39333;47.044;15.080;2022-11-06T14:07:33;161.40;;;155.20;;
53439;SDS011;39333;47.044;15.080;2022-11-06T14:10:02;161.95;;;155.75;;
53439;SDS011;39333;47.044;15.080;2022-11-06T14:12:29;168.70;;;162.30;;
53439;SDS011;39333;47.044;15.080;2022-11-06T14:17:56;166.48;;;159.82;;
53439;SDS011;39333;47.044;15.080;2022-11-06T14:20:32;168.60;;;162.20;;
53439;SDS011;39333;47.044;15.080;2022-11-06T14:26:00;167.50;;;161.15;;
53439;SDS011;39333;47.044;15.080;2022-11-06T14:28:30;168.98;;;162.68;;
53439;SDS011;39333;47.044;15.080;2022-11-06T14:31:02;168.48;;;161.85;;
53439;SDS011;39333;47.044;15.080;2022-11-06T14:39:10;169.27;;;162.45;;
53439;SDS011;39333;47.044;15.080;2022-11-06T14:44:11;168.00;;;161.45;;
53439;SDS011;39333;47.044;15.080;2022-11-06T14:46:50;170.07;;;163.43;;
53439;SDS011;39333;47.044;15.080;2022-11-06T14:49:24;175.27;;;168.32;;
53439;SDS011;39333;47.044;15.080;2022-11-06T14:51:59;169.10;;;162.35;;
53439;SDS011;39333;47.044;15.080;2022-11-06T14:54:30;171.77;;;164.98;;
53439;SDS011;39333;47.044;15.080;2022-11-06T14:57:00;169.23;;;162.48;;
53439;SDS011;39333;47.044;15.080;2022-11-06T14:59:34;170.05;;;163.18;;
53439;SDS011;39333;47.044;15.080;2022-11-06T15:05:04;174.27;;;166.57;;
53439;SDS011;39333;47.044;15.080;2022-11-06T15:16:04;174.13;;;166.90;;
53439;SDS011;39333;47.044;15.080;2022-11-06T15:18:32;164.88;;;158.30;;
53439;SDS011;39333;47.044;15.080;2022-11-06T15:21:02;165.25;;;158.40;;
53439;SDS011;39333;47.044;15.080;2022-11-06T15:23:40;166.77;;;159.52;;
53439;SDS011;39333;47.044;15.080;2022-11-06T15:26:24;165.85;;;158.95;;
53439;SDS011;39333;47.044;15.080;2022-11-06T15:29:02;165.70;;;158.60;;
53439;SDS011;39333;47.044;15.080;2022-11-06T15:31:37;155.32;;;148.98;;
53439;SDS011;39333;47.044;15.080;2022-11-06T15:34:16;173.85;;;166.43;;
53439;SDS011;39333;47.044;15.080;2022-11-06T15:36:46;160.07;;;152.95;;
53439;SDS011;39333;47.044;15.080;2022-11-06T15:39:22;162.15;;;155.32;;
53439;SDS011;39333;47.044;15.080;2022-11-06T15:41:56;164.73;;;157.85;;
53439;SDS011;39333;47.044;15.080;2022-11-06T15:44:23;165.05;;;158.45;;
53439;SDS011;39333;47.044;15.080;2022-11-06T15:46:57;165.15;;;158.07;;
53439;SDS011;39333;47.044;15.080;2022-11-06T15:49:24;175.20;;;166.63;;
53439;SDS011;39333;47.044;15.080;2022-11-06T15:54:31;171.07;;;162.60;;
53439;SDS011;39333;47.044;15.080;2022-11-06T15:57:14;172.02;;;162.63;;
53439;SDS011;39333;47.044;15.080;2022-11-06T15:59:44;180.82;;;170.23;;
53439;SDS011;39333;47.044;15.080;2022-11-06T16:02:15;173.70;;;163.65;;
53439;SDS011;39333;47.044;15.080;2022-11-06T16:04:45;168.77;;;159.27;;
53439;SDS011;39333;47.044;15.080;2022-11-06T16:07:12;170.30;;;161.13;;
53439;SDS011;39333;47.044;15.080;2022-11-06T16:09:41;168.77;;;159.73;;
53439;SDS011;39333;47.044;15.080;2022-11-06T16:12:10;176.50;;;167.20;;
53439;SDS011;39333;47.044;15.080;2022-11-06T16:14:40;179.73;;;169.70;;
53439;SDS011;39333;47.044;15.080;2022-11-06T16:17:11;162.93;;;154.55;;
53439;SDS011;39333;47.044;15.080;2022-11-06T16:19:44;163.45;;;155.05;;
53439;SDS011;39333;47.044;15.080;2022-11-06T16:22:14;167.30;;;158.82;;
53439;SDS011;39333;47.044;15.080;2022-11-06T16:27:22;161.20;;;152.95;;
53439;SDS011;39333;47.044;15.080;2022-11-06T16:29:55;160.63;;;152.18;;
53439;SDS011;39333;47.044;15.080;2022-11-06T16:32:24;164.32;;;155.75;;
53439;SDS011;39333;47.044;15.080;2022-11-06T16:34:53;170.75;;;162.15;;
53439;SDS011;39333;47.044;15.080;2022-11-06T16:39:53;157.65;;;149.70;;
53439;SDS011;39333;47.044;15.080;2022-11-06T16:44:48;156.95;;;149.52;;
53439;SDS011;39333;47.044;15.080;2022-11-06T16:47:16;156.40;;;148.65;;
53439;SDS011;39333;47.044;15.080;2022-11-06T16:49:45;168.18;;;160.18;;
53439;SDS011;39333;47.044;15.080;2022-11-06T16:52:29;161.70;;;154.53;;
53439;SDS011;39333;47.044;15.080;2022-11-06T17:02:54;169.80;;;161.38;;
53439;SDS011;39333;47.044;15.080;2022-11-06T17:05:24;151.38;;;144.43;;
53439;SDS011;39333;47.044;15.080;2022-11-06T17:10:48;154.52;;;147.13;;
53439;SDS011;39333;47.044;15.080;2022-11-06T17:13:26;156.18;;;148.70;;
53439;SDS011;39333;47.044;15.080;2022-11-06T17:15:57;161.07;;;153.43;;